Wolford, VA (24658)

7:15 PM EDT on October 22, 2014 (GMT -0400)
Tazewell County | Change Station
CLOSE
Current Station
Airport
Location: Richlands,
Elevation: 2651 ft
Nearby Weather Stations

Elev 2651 ft 37.06 °N, 81.80 °W | Updated 20 minutes ago

Overcast
Overcast
44 °F
Feels Like 42 °F
N
5
Wind Variable Wind from NNW

Today
High -- | Low -- °F
--% Chance of Precip.
Yesterday
High -- | Low -- °F
Precip. -- in
7:42 AM 6:41 PM
Waning Crescent, 1% visible
Pressure 30.18 in
Visibility 4.0 miles
Clouds Mostly Cloudy 300 ft
Overcast 700 ft
Windchill 42 °F
Dew Point 43 °F
Humidity 94%
Rainfall 0.00 in
Snow Depth Not available.
UV 0 out of 12
Pollen .30 out of 12
Air Quality Not available.
Flu Activity Local Activity
METAR KJFZ 222255Z AUTO 33004KT 4SM BR BKN003 OVC007 07/06 A3018 RMK AO2 T00680059

More Conditions Fewer Conditions

Pressure 30.18 in
Visibility 4.0 miles
Clouds Mostly Cloudy 300 ft
Overcast 700 ft
Windchill 42 °F
Dew Point 43 °F
Humidity 94%
Rainfall 0.00 in
Snow Depth Not available.
UV 0 out of 12
Pollen .30 out of 12
Air Quality Not available.
Flu Activity Local Activity
METAR KJFZ 222255Z AUTO 33004KT 4SM BR BKN003 OVC007 07/06 A3018 RMK AO2 T00680059

More Conditions Fewer Conditions

10-Day Weather Forecast

Almanac

Astronomy

Oct. 22, 2014 Rise Set
Actual Time 7:42 AM EDT 6:41 PM EDT
Civil Twilight 7:16 AM EDT 7:08 PM EDT
Nautical Twilight 6:45 AM EDT 7:38 PM EDT
Astronomical Twilight 6:15 AM EDT 8:08 PM EDT
Moon 6:24 AM EDT 6:06 PM EDT
Length of Visible Light 11h 52m
Length of Day
10h 59m
Tomorrow will be 2m 14s shorter.
Waning Crescent, 1% of the Moon is Illuminated
Today
Waning Crescent
Oct 23
New
Oct 30
First Quarter
Nov 6
Full
Nov 14
Last Quarter

Today's Extremes

State Highs State Lows

Community

WunderPhotos

Upload Photos

1,764,075 photos uploaded!

WunderBlogs® & News

Nearby

Snow Depth

Station Depth Elevation
No new snow has been reported.

Earthquake Activity

City Distance Mag. Time & Date
No recent earthquake activity has been reported nearby.
Minimum magnitude displayed is 2.5.

Coastal Water Temperatures

Place Temperature
No Stations Reporting

Nearby Weather Stations